Time;durP1;ratioP1;P1;durP2;ratioP2;P2;SDS_P1;SDS_P2;PMS_P1;PMS_P2;Temp;Humidity;BMP_temperature;BMP_pressure;BME280_temperature;BME280_humidity;BME280_pressure;Samples;Min_cycle;Max_cycle;Signal;HPM_P1;HPM_P2
2021/12/22 00:01:00;;;;;;;10.40;10.10;;;-4.60;99.90;;;;;;5146683;27;20262;-83
2021/12/22 00:03:28;;;;;;;10.60;10.30;;;-4.70;99.90;;;;;;5147304;27;20223;-83
2021/12/22 00:05:56;;;;;;;10.70;10.40;;;-4.80;99.90;;;;;;5146563;27;20241;-83
2021/12/22 00:08:25;;;;;;;10.60;10.30;;;-4.80;99.90;;;;;;5148491;27;20230;-83
2021/12/22 00:10:55;;;;;;;10.27;9.97;;;-4.70;99.90;;;;;;5158091;27;20222;-84
2021/12/22 00:13:23;;;;;;;10.37;10.07;;;-4.70;99.90;;;;;;5148328;27;20222;-83
2021/12/22 00:15:50;;;;;;;10.50;10.20;;;-4.70;99.90;;;;;;5146850;27;20265;-84
2021/12/22 00:18:18;;;;;;;10.50;10.20;;;-4.60;99.90;;;;;;5147929;27;20227;-83
2021/12/22 00:20:46;;;;;;;10.40;10.10;;;-4.70;99.90;;;;;;5147393;27;20300;-83
2021/12/22 00:23:13;;;;;;;10.33;10.03;;;-4.70;99.90;;;;;;5148354;27;20241;-83
2021/12/22 00:25:41;;;;;;;10.17;9.87;;;-4.70;99.90;;;;;;5148088;27;20245;-83
2021/12/22 00:28:10;;;;;;;10.23;9.93;;;-4.70;99.90;;;;;;5149541;27;20257;-84
2021/12/22 00:30:39;;;;;;;9.90;9.60;;;-4.70;99.90;;;;;;5155274;27;20268;-83
2021/12/22 00:33:10;;;;;;;10.43;10.13;;;-4.80;99.90;;;;;;5157794;27;20221;-84
2021/12/22 00:35:43;;;;;;;10.37;10.07;;;-4.80;99.90;;;;;;5157815;27;20214;-85
2021/12/22 00:38:13;;;;;;;10.20;9.90;;;-4.80;99.90;;;;;;5151864;27;20219;-84
2021/12/22 00:40:43;;;;;;;9.90;9.60;;;-4.90;99.90;;;;;;5157596;27;20243;-84
2021/12/22 00:43:13;;;;;;;10.30;10.00;;;-4.90;99.90;;;;;;5158674;27;20226;-83
2021/12/22 00:45:42;;;;;;;9.80;9.50;;;-5.00;99.90;;;;;;5158273;27;20245;-84
2021/12/22 00:48:11;;;;;;;9.97;9.67;;;-5.00;99.90;;;;;;5158168;27;20268;-84
2021/12/22 00:50:41;;;;;;;9.73;9.43;;;-5.00;99.90;;;;;;5166518;22;20249;-81
2021/12/22 00:53:09;;;;;;;10.03;9.73;;;-5.10;99.90;;;;;;5098920;28;20219;-81
2021/12/22 00:55:39;;;;;;;9.90;9.60;;;-5.10;99.90;;;;;;5098430;28;20283;-81
2021/12/22 00:58:08;;;;;;;10.20;9.90;;;-5.10;99.90;;;;;;5100661;28;20232;-81
2021/12/22 01:00:38;;;;;;;9.90;9.60;;;-5.20;99.90;;;;;;5099819;28;20297;-80
2021/12/22 01:03:06;;;;;;;10.20;9.90;;;-5.20;99.90;;;;;;5100240;28;20236;-80
2021/12/22 01:05:36;;;;;;;10.27;9.97;;;-5.20;99.90;;;;;;5107571;28;20215;-81
2021/12/22 01:08:04;;;;;;;10.33;10.03;;;-5.30;99.90;;;;;;5120729;28;20227;-81
2021/12/22 01:10:35;;;;;;;10.43;10.13;;;-5.30;99.90;;;;;;5120956;28;20217;-79
2021/12/22 01:13:06;;;;;;;10.40;10.10;;;-5.20;99.90;;;;;;5121223;28;20222;-79
2021/12/22 01:15:37;;;;;;;10.37;10.07;;;-5.20;99.90;;;;;;5121023;28;20212;-80
2021/12/22 01:18:14;;;;;;;10.20;9.90;;;-5.30;99.90;;;;;;5121230;28;20237;-80
2021/12/22 01:20:59;;;;;;;10.17;9.87;;;-5.30;99.90;;;;;;5121092;28;20255;-80
2021/12/22 01:23:33;;;;;;;9.80;9.50;;;-5.30;99.90;;;;;;5116215;28;20211;-80
2021/12/22 01:26:00;;;;;;;10.60;10.30;;;-5.40;99.90;;;;;;5119574;28;20240;-79
2021/12/22 01:28:28;;;;;;;10.70;10.40;;;-5.40;99.90;;;;;;5119044;28;20228;-79
2021/12/22 01:31:02;;;;;;;9.83;9.53;;;-5.40;99.90;;;;;;5106461;28;20285;-79
2021/12/22 01:33:29;;;;;;;10.20;9.90;;;-5.40;99.90;;;;;;5108242;28;20247;-79
2021/12/22 01:35:57;;;;;;;10.10;9.80;;;-5.40;99.90;;;;;;5104387;28;20247;-79
2021/12/22 01:38:25;;;;;;;10.00;9.70;;;-5.40;99.90;;;;;;5104046;28;20258;-79
2021/12/22 01:40:54;;;;;;;10.00;9.70;;;-5.40;99.90;;;;;;5102937;28;20245;-79
2021/12/22 01:43:23;;;;;;;10.20;9.90;;;-5.50;99.90;;;;;;5103038;28;20240;-79
2021/12/22 01:46:07;;;;;;;10.30;10.00;;;-5.50;99.90;;;;;;5101724;28;20233;-79
2021/12/22 01:51:37;;;;;;;9.97;9.67;;;-5.40;99.90;;;;;;5125960;27;20230;-79
2021/12/22 01:54:10;;;;;;;10.27;9.97;;;-5.40;99.90;;;;;;5140320;27;20218;-80
2021/12/22 01:56:38;;;;;;;10.10;9.80;;;-5.40;99.90;;;;;;5139140;27;20268;-79
2021/12/22 01:59:09;;;;;;;10.00;9.70;;;-5.40;99.90;;;;;;5138859;27;20230;-78
2021/12/22 02:01:38;;;;;;;9.77;9.47;;;-5.40;99.90;;;;;;5138856;27;20230;-79
2021/12/22 02:04:12;;;;;;;9.77;9.47;;;-5.40;99.90;;;;;;5138501;27;20272;-79
2021/12/22 02:06:41;;;;;;;9.60;9.30;;;-5.40;99.90;;;;;;5137648;27;20262;-80
2021/12/22 02:09:11;;;;;;;9.47;9.17;;;-5.30;99.90;;;;;;5138138;27;20237;-79
2021/12/22 02:11:39;;;;;;;9.87;9.57;;;-5.30;99.90;;;;;;5137403;27;20231;-79
2021/12/22 02:14:07;;;;;;;9.90;9.60;;;-5.40;99.90;;;;;;5136914;27;20231;-80
2021/12/22 02:16:38;;;;;;;9.53;9.23;;;-5.40;99.90;;;;;;5136952;27;20270;-79
2021/12/22 02:19:10;;;;;;;9.80;9.50;;;-5.40;99.90;;;;;;5137798;27;20309;-79
2021/12/22 02:21:45;;;;;;;9.90;9.60;;;-5.40;99.90;;;;;;5138029;27;20309;-79
2021/12/22 02:24:13;;;;;;;9.93;9.63;;;-5.50;99.90;;;;;;5137204;27;20268;-79
2021/12/22 02:26:49;;;;;;;9.73;9.43;;;-5.50;99.90;;;;;;5137330;27;20241;-78
2021/12/22 02:29:22;;;;;;;9.63;9.33;;;-5.60;99.90;;;;;;5137304;27;20229;-79
2021/12/22 02:32:04;;;;;;;9.77;9.47;;;-5.60;99.90;;;;;;5137531;27;20245;-79
2021/12/22 02:34:40;;;;;;;9.70;9.40;;;-5.60;99.90;;;;;;5137404;27;20217;-79
2021/12/22 02:37:13;;;;;;;9.77;9.47;;;-5.60;99.90;;;;;;5140207;27;20245;-79
2021/12/22 02:39:47;;;;;;;9.97;9.67;;;-5.70;99.90;;;;;;5141792;27;20237;-79
2021/12/22 02:42:20;;;;;;;9.83;9.53;;;-5.60;99.90;;;;;;5141837;27;20298;-80
2021/12/22 02:44:51;;;;;;;10.00;9.70;;;-5.70;99.90;;;;;;5142016;27;20234;-80
2021/12/22 02:47:21;;;;;;;9.70;9.40;;;-5.70;99.90;;;;;;5151725;27;20201;-79
2021/12/22 02:49:50;;;;;;;9.70;9.40;;;-5.70;99.90;;;;;;5159494;27;20233;-79
2021/12/22 02:52:20;;;;;;;10.00;9.70;;;-5.80;99.90;;;;;;5158538;27;20229;-80
2021/12/22 02:54:55;;;;;;;9.67;9.37;;;-5.70;99.90;;;;;;5159411;27;20217;-79
2021/12/22 02:57:29;;;;;;;9.73;9.43;;;-5.70;99.90;;;;;;5159626;27;20245;-79
2021/12/22 03:00:28;;;;;;;9.60;9.30;;;-5.80;99.90;;;;;;5159663;27;20226;-79
2021/12/22 03:03:06;;;;;;;9.33;9.03;;;-5.90;99.90;;;;;;5159858;27;20239;-79
2021/12/22 03:05:40;;;;;;;9.40;9.10;;;-6.00;99.90;;;;;;5159095;27;20229;-81
2021/12/22 03:08:10;;;;;;;9.33;9.03;;;-6.00;99.90;;;;;;5159760;27;20222;-80
2021/12/22 03:10:37;;;;;;;9.80;9.50;;;-6.00;99.90;;;;;;5154943;27;21160;-80
2021/12/22 03:13:05;;;;;;;9.67;9.37;;;-6.00;99.90;;;;;;5145252;27;20240;-80
2021/12/22 03:15:34;;;;;;;10.13;9.83;;;-6.00;99.90;;;;;;5144764;27;20222;-79
2021/12/22 03:18:04;;;;;;;9.47;9.17;;;-6.00;99.90;;;;;;5145463;27;20224;-80
2021/12/22 03:20:32;;;;;;;9.67;9.37;;;-6.00;99.90;;;;;;5147183;27;20241;-81
2021/12/22 03:23:00;;;;;;;9.17;8.87;;;-6.00;99.90;;;;;;5145401;27;20232;-80
2021/12/22 03:25:32;;;;;;;9.73;9.43;;;-6.00;99.90;;;;;;5144183;27;20335;-80
2021/12/22 03:28:03;;;;;;;9.70;9.40;;;-6.00;99.90;;;;;;5144127;27;20248;-80
2021/12/22 03:30:33;;;;;;;9.50;9.20;;;-6.00;99.90;;;;;;5143277;27;20226;-80
2021/12/22 03:33:01;;;;;;;9.37;9.07;;;-5.90;99.90;;;;;;5144355;27;20228;-80
2021/12/22 03:35:30;;;;;;;9.53;9.23;;;-5.90;99.90;;;;;;5143995;27;20240;-80
2021/12/22 03:38:00;;;;;;;9.50;9.20;;;-5.90;99.90;;;;;;5145044;27;20309;-80
2021/12/22 03:40:30;;;;;;;9.70;9.40;;;-5.90;99.90;;;;;;5145067;27;20242;-80
2021/12/22 03:42:59;;;;;;;9.77;9.47;;;-5.90;99.90;;;;;;5144401;27;20230;-79
2021/12/22 03:45:27;;;;;;;9.57;9.27;;;-5.90;99.90;;;;;;5142296;27;20240;-80
2021/12/22 03:47:55;;;;;;;9.33;9.03;;;-6.00;99.90;;;;;;5141933;27;20229;-79
2021/12/22 03:50:23;;;;;;;9.80;9.50;;;-6.00;99.90;;;;;;5142195;27;20306;-79
2021/12/22 03:52:50;;;;;;;9.63;9.33;;;-6.00;99.90;;;;;;5143350;27;20233;-79
2021/12/22 03:55:18;;;;;;;9.90;9.60;;;-6.00;99.90;;;;;;5145477;27;20241;-79
2021/12/22 03:57:50;;;;;;;9.70;9.40;;;-6.10;99.90;;;;;;5155891;27;20220;-80
2021/12/22 04:00:18;;;;;;;9.50;9.20;;;-6.20;99.90;;;;;;5162846;27;20240;-79
2021/12/22 04:02:46;;;;;;;9.77;9.47;;;-6.20;99.90;;;;;;5163695;27;20221;-80
2021/12/22 04:05:16;;;;;;;9.53;9.23;;;-6.30;99.90;;;;;;5163219;27;20209;-81
2021/12/22 04:07:44;;;;;;;9.83;9.53;;;-6.30;99.90;;;;;;5162968;27;20205;-80
2021/12/22 04:10:22;;;;;;;9.67;9.37;;;-6.30;99.90;;;;;;5162507;27;20212;-79
2021/12/22 04:12:54;;;;;;;9.83;9.53;;;-6.30;99.90;;;;;;5162585;27;20204;-80
2021/12/22 04:15:26;;;;;;;9.70;9.40;;;-6.30;99.90;;;;;;5163086;27;20200;-79
2021/12/22 04:17:54;;;;;;;9.60;9.30;;;-6.30;99.90;;;;;;5163013;27;20219;-80
2021/12/22 04:20:22;;;;;;;9.50;9.20;;;-6.30;99.90;;;;;;5162195;27;20241;-80
2021/12/22 04:22:50;;;;;;;9.73;9.43;;;-6.40;99.90;;;;;;5162501;27;20213;-80
2021/12/22 04:25:21;;;;;;;9.80;9.50;;;-6.30;99.90;;;;;;5160545;27;20220;-79
2021/12/22 04:27:52;;;;;;;9.80;9.50;;;-6.40;99.90;;;;;;5157686;27;20217;-79
2021/12/22 04:30:21;;;;;;;9.73;9.43;;;-6.40;99.90;;;;;;5156179;27;20221;-80
2021/12/22 04:32:49;;;;;;;10.00;9.70;;;-6.30;99.90;;;;;;5157537;27;21054;-79
2021/12/22 04:35:17;;;;;;;9.47;9.17;;;-6.30;99.90;;;;;;5155982;27;20231;-80
2021/12/22 04:37:45;;;;;;;9.77;9.47;;;-6.30;99.90;;;;;;5146061;27;20226;-80
2021/12/22 04:40:14;;;;;;;9.93;9.63;;;-6.40;99.90;;;;;;5147331;27;20232;-80
2021/12/22 04:42:47;;;;;;;9.97;9.67;;;-6.40;99.90;;;;;;5141956;27;20231;-79
2021/12/22 04:45:18;;;;;;;10.00;9.70;;;-6.40;99.90;;;;;;5140729;27;20261;-80
2021/12/22 04:47:47;;;;;;;9.70;9.40;;;-6.40;99.90;;;;;;5140920;27;20229;-80
2021/12/22 04:50:18;;;;;;;9.73;9.43;;;-6.50;99.90;;;;;;5141947;27;20232;-80
2021/12/22 04:52:54;;;;;;;9.97;9.67;;;-6.50;99.90;;;;;;5142103;27;20256;-80
2021/12/22 04:55:22;;;;;;;10.13;9.83;;;-6.60;99.90;;;;;;5140818;27;20256;-79
2021/12/22 04:57:50;;;;;;;10.27;9.97;;;-6.60;99.90;;;;;;5140122;27;21023;-80
2021/12/22 05:00:21;;;;;;;9.90;9.60;;;-6.60;99.90;;;;;;5138461;27;20274;-80
2021/12/22 05:02:51;;;;;;;10.27;9.97;;;-6.60;99.90;;;;;;5140686;27;20247;-80
2021/12/22 05:05:19;;;;;;;10.13;9.83;;;-6.60;99.90;;;;;;5140008;27;20283;-79
2021/12/22 05:07:48;;;;;;;9.53;9.23;;;-6.60;99.90;;;;;;5139352;27;20234;-80
2021/12/22 05:10:18;;;;;;;10.30;10.00;;;-6.60;99.90;;;;;;5139550;27;20230;-79
2021/12/22 05:12:47;;;;;;;10.20;9.90;;;-6.70;99.90;;;;;;5139428;27;20263;-79
2021/12/22 05:15:19;;;;;;;9.93;9.63;;;-6.70;99.90;;;;;;5138979;27;20289;-80
2021/12/22 05:18:13;;;;;;;9.97;9.67;;;-6.60;99.90;;;;;;5139278;27;20221;-79
2021/12/22 05:20:42;;;;;;;9.70;9.40;;;-6.60;99.90;;;;;;5139459;27;20329;-79
2021/12/22 05:23:09;;;;;;;10.27;9.97;;;-6.70;99.90;;;;;;5142041;27;20228;-79
2021/12/22 05:25:37;;;;;;;10.10;9.80;;;-6.70;99.90;;;;;;5138135;27;20233;-80
2021/12/22 05:28:06;;;;;;;10.37;10.07;;;-6.70;99.90;;;;;;5139400;27;20250;-79
2021/12/22 05:30:33;;;;;;;10.00;9.70;;;-6.70;99.90;;;;;;5138986;27;20239;-79
2021/12/22 05:33:03;;;;;;;10.27;9.97;;;-6.80;99.90;;;;;;5149933;27;20212;-80
2021/12/22 05:35:31;;;;;;;10.37;10.07;;;-6.80;99.90;;;;;;5161754;27;20285;-80
2021/12/22 05:37:59;;;;;;;10.07;9.77;;;-6.80;99.90;;;;;;5162162;27;20211;-79
2021/12/22 05:40:28;;;;;;;9.90;9.60;;;-6.80;99.90;;;;;;5162167;27;20266;-80
2021/12/22 05:42:58;;;;;;;10.03;9.73;;;-6.80;99.90;;;;;;5162429;27;20223;-81
2021/12/22 05:45:28;;;;;;;10.30;10.00;;;-6.70;99.90;;;;;;5161665;27;20206;-80
2021/12/22 05:47:59;;;;;;;10.10;9.80;;;-6.80;99.90;;;;;;5161718;27;20225;-80
2021/12/22 05:50:28;;;;;;;10.03;9.73;;;-6.80;99.90;;;;;;5148283;27;20255;-79
2021/12/22 05:52:57;;;;;;;9.60;9.30;;;-6.90;99.90;;;;;;5145543;27;20296;-80
2021/12/22 05:55:25;;;;;;;10.17;9.87;;;-6.90;99.90;;;;;;5145801;27;20277;-79
2021/12/22 05:57:53;;;;;;;10.10;9.80;;;-6.80;99.90;;;;;;5145842;27;20245;-79
2021/12/22 06:00:25;;;;;;;10.20;9.90;;;-6.80;99.90;;;;;;5145942;27;20282;-80
2021/12/22 06:02:53;;;;;;;9.70;9.40;;;-6.90;99.90;;;;;;5145654;27;20220;-79
2021/12/22 06:05:21;;;;;;;9.90;9.60;;;-6.80;99.90;;;;;;5144008;27;20224;-80
2021/12/22 06:07:50;;;;;;;10.03;9.73;;;-6.80;99.90;;;;;;5143688;27;20233;-79
2021/12/22 06:10:18;;;;;;;10.27;9.97;;;-6.90;99.90;;;;;;5146829;27;20231;-79
2021/12/22 06:12:46;;;;;;;10.40;10.10;;;-6.90;99.90;;;;;;5150348;27;20229;-79
2021/12/22 06:15:14;;;;;;;10.03;9.73;;;-6.90;99.90;;;;;;5149673;27;20286;-79
2021/12/22 06:17:42;;;;;;;10.40;10.10;;;-6.90;99.90;;;;;;5148530;27;20220;-79
2021/12/22 06:20:12;;;;;;;10.40;10.10;;;-6.90;99.90;;;;;;5146952;27;20223;-79
2021/12/22 06:22:39;;;;;;;10.13;9.83;;;-6.90;99.90;;;;;;5146230;27;20291;-80
2021/12/22 06:25:11;;;;;;;10.37;10.07;;;-6.90;99.90;;;;;;5145841;27;20282;-80
2021/12/22 06:27:39;;;;;;;9.80;9.50;;;-6.90;99.90;;;;;;5145879;27;20238;-80
2021/12/22 06:30:11;;;;;;;10.27;9.97;;;-6.90;99.90;;;;;;5145516;27;20232;-79
2021/12/22 06:32:40;;;;;;;9.50;9.20;;;-6.90;99.90;;;;;;5146080;27;20225;-79
2021/12/22 06:35:09;;;;;;;9.80;9.50;;;-6.80;99.90;;;;;;5146294;27;20230;-80
2021/12/22 06:37:38;;;;;;;9.77;9.47;;;-6.80;99.90;;;;;;5155660;27;20228;-80
2021/12/22 06:40:09;;;;;;;10.23;9.93;;;-6.80;99.90;;;;;;5149837;27;20232;-79
2021/12/22 06:42:40;;;;;;;10.20;9.90;;;-6.90;99.90;;;;;;5152472;27;20228;-79
2021/12/22 06:45:10;;;;;;;10.40;10.10;;;-6.90;99.90;;;;;;5152779;27;20224;-80
2021/12/22 06:47:39;;;;;;;10.33;10.03;;;-6.90;99.90;;;;;;5147163;27;20292;-80
2021/12/22 06:50:09;;;;;;;10.43;10.13;;;-6.90;99.90;;;;;;5145419;27;20228;-80
2021/12/22 06:52:36;;;;;;;10.17;9.87;;;-6.80;99.90;;;;;;5142989;27;20239;-80
2021/12/22 06:55:05;;;;;;;10.67;10.37;;;-6.80;99.90;;;;;;5142253;27;20246;-79
2021/12/22 06:57:35;;;;;;;10.70;10.40;;;-6.80;99.90;;;;;;5144199;27;20341;-79
2021/12/22 07:00:06;;;;;;;10.83;10.53;;;-6.80;99.90;;;;;;5143725;27;20224;-80
2021/12/22 07:02:37;;;;;;;10.83;10.53;;;-6.90;99.90;;;;;;5142984;27;20239;-80
2021/12/22 07:05:07;;;;;;;10.73;10.43;;;-6.90;99.90;;;;;;5142341;27;20234;-80
2021/12/22 07:07:40;;;;;;;10.60;10.30;;;-6.90;99.90;;;;;;5143700;27;20293;-80
2021/12/22 07:10:11;;;;;;;10.43;10.13;;;-6.90;99.90;;;;;;5142946;27;20277;-80
2021/12/22 07:12:42;;;;;;;10.63;10.33;;;-6.80;99.90;;;;;;5143469;27;20301;-80
2021/12/22 07:15:12;;;;;;;10.43;10.13;;;-6.70;99.90;;;;;;5145067;27;20251;-80
2021/12/22 07:17:41;;;;;;;10.47;10.17;;;-6.70;99.90;;;;;;5156056;27;20217;-80
2021/12/22 07:20:11;;;;;;;10.37;10.07;;;-6.60;99.90;;;;;;5147797;27;20224;-80
2021/12/22 07:22:45;;;;;;;10.83;10.53;;;-6.50;99.90;;;;;;5145621;27;20229;-82
2021/12/22 07:25:15;;;;;;;10.73;10.43;;;-6.50;99.90;;;;;;5146457;27;20272;-81
2021/12/22 07:27:47;;;;;;;10.63;10.33;;;-6.50;99.90;;;;;;5157017;27;20328;-81
2021/12/22 07:30:16;;;;;;;10.33;10.03;;;-6.50;99.90;;;;;;5144091;27;20227;-81
2021/12/22 07:32:44;;;;;;;10.70;10.40;;;-6.40;99.90;;;;;;5142070;27;20291;-80
2021/12/22 07:35:22;;;;;;;10.47;10.17;;;-6.30;99.90;;;;;;5141956;27;20287;-81
2021/12/22 07:38:05;;;;;;;10.53;10.23;;;-6.40;99.90;;;;;;5141271;27;20256;-82
2021/12/22 07:40:32;;;;;;;10.43;10.13;;;-6.40;99.90;;;;;;5140726;27;20236;-82
2021/12/22 07:43:04;;;;;;;10.90;10.60;;;-6.30;99.90;;;;;;5141431;27;20263;-80
2021/12/22 07:45:34;;;;;;;10.90;10.60;;;-6.30;99.90;;;;;;5142761;27;20236;-81
2021/12/22 07:48:02;;;;;;;10.70;10.40;;;-6.30;99.90;;;;;;5140953;27;20277;-80
2021/12/22 07:50:30;;;;;;;10.77;10.47;;;-6.30;99.90;;;;;;5143845;27;20252;-80
2021/12/22 07:52:58;;;;;;;10.93;10.63;;;-6.30;99.90;;;;;;5143794;27;20228;-80
2021/12/22 07:55:27;;;;;;;11.00;10.70;;;-6.30;99.90;;;;;;5144107;27;20224;-80
2021/12/22 07:57:55;;;;;;;10.73;10.43;;;-6.20;99.90;;;;;;5149266;27;20256;-80
2021/12/22 08:00:27;;;;;;;11.03;10.73;;;-6.20;99.90;;;;;;5162734;27;20230;-81
2021/12/22 08:02:55;;;;;;;11.43;11.03;;;-6.20;99.90;;;;;;5162336;27;20230;-84
2021/12/22 08:05:24;;;;;;;11.30;11.00;;;-6.10;99.90;;;;;;5142277;28;20244;-83
2021/12/22 08:08:31;;;;;;;11.03;10.73;;;-6.10;99.90;;;;;;5142792;27;20240;-83
2021/12/22 08:10:59;;;;;;;11.10;10.73;;;-6.00;99.90;;;;;;5148127;27;20231;-82
2021/12/22 08:13:26;;;;;;;10.97;10.63;;;-5.90;99.90;;;;;;5169994;22;20289;-80
2021/12/22 08:15:56;;;;;;;11.10;10.70;;;-6.00;99.90;;;;;;5142827;27;20232;-80
2021/12/22 08:18:25;;;;;;;11.10;10.77;;;-5.90;99.90;;;;;;5143411;27;20216;-79
2021/12/22 08:20:53;;;;;;;11.47;11.07;;;-5.90;99.90;;;;;;5144387;27;20301;-82
2021/12/22 08:23:21;;;;;;;10.77;10.47;;;-5.80;99.90;;;;;;5128582;27;20234;-80
2021/12/22 08:25:51;;;;;;;10.70;10.40;;;-5.80;99.90;;;;;;5122836;28;20221;-82
2021/12/22 08:28:20;;;;;;;10.47;10.17;;;-5.80;99.90;;;;;;5123192;28;20256;-80
2021/12/22 08:30:49;;;;;;;10.20;9.90;;;-5.60;99.90;;;;;;5122981;28;20260;-82
2021/12/22 08:33:58;;;;;;;10.60;10.30;;;-5.60;99.90;;;;;;5122370;27;20241;-81
2021/12/22 08:39:20;;;;;;;10.63;10.33;;;-5.30;99.90;;;;;;5123901;28;20212;-81
2021/12/22 08:41:49;;;;;;;10.70;10.40;;;-5.20;99.90;;;;;;5122089;27;20232;-80
2021/12/22 08:44:19;;;;;;;10.93;10.63;;;-5.10;99.90;;;;;;5122913;28;20231;-81
2021/12/22 08:46:56;;;;;;;10.63;10.33;;;-5.00;99.90;;;;;;5122601;28;20230;-81
2021/12/22 08:49:35;;;;;;;10.40;10.10;;;-4.90;99.90;;;;;;5122346;27;20226;-81
2021/12/22 08:52:31;;;;;;;9.80;9.50;;;-4.70;99.90;;;;;;5122737;27;20234;-82
2021/12/22 08:55:03;;;;;;;10.30;10.00;;;-4.60;99.90;;;;;;5119105;28;20285;-80
2021/12/22 08:57:31;;;;;;;10.20;9.90;;;-4.50;99.90;;;;;;5122600;28;20338;-80
2021/12/22 08:59:59;;;;;;;10.23;9.93;;;-4.30;99.90;;;;;;5123952;27;20231;-81
2021/12/22 09:02:30;;;;;;;10.23;9.93;;;-4.20;99.90;;;;;;5121814;27;20236;-80
2021/12/22 09:05:34;;;;;;;10.00;9.70;;;-4.10;99.90;;;;;;5131827;27;20233;-81
2021/12/22 09:08:02;;;;;;;9.87;9.57;;;-4.00;99.90;;;;;;5129508;27;20292;-81
2021/12/22 09:10:30;;;;;;;10.10;9.80;;;-3.80;99.90;;;;;;5123890;28;20216;-80
2021/12/22 09:13:01;;;;;;;10.03;9.73;;;-3.70;99.90;;;;;;5121871;27;20240;-80
2021/12/22 09:15:30;;;;;;;9.67;9.37;;;-3.60;99.90;;;;;;5120979;28;20228;-81
2021/12/22 09:18:00;;;;;;;9.97;9.67;;;-3.40;99.90;;;;;;5121580;28;20294;-81
2021/12/22 09:20:31;;;;;;;9.67;9.37;;;-3.30;99.90;;;;;;5121618;27;20449;-80
2021/12/22 09:22:59;;;;;;;9.13;8.83;;;-3.10;99.90;;;;;;5122375;27;20236;-80
2021/12/22 09:25:30;;;;;;;9.30;9.00;;;-3.00;99.90;;;;;;5121815;28;20290;-81
2021/12/22 09:27:58;;;;;;;9.70;9.40;;;-2.90;99.90;;;;;;5138774;27;20216;-80
2021/12/22 09:30:27;;;;;;;9.87;9.57;;;-2.70;99.90;;;;;;5141099;27;20363;-81
2021/12/22 09:32:56;;;;;;;9.40;9.10;;;-2.60;99.90;;;;;;5140580;27;20239;-79
2021/12/22 09:35:27;;;;;;;9.20;8.90;;;-2.40;99.90;;;;;;5132251;28;20235;-81
2021/12/22 09:37:57;;;;;;;9.80;9.50;;;-2.20;99.90;;;;;;5121852;28;20232;-81
2021/12/22 09:40:26;;;;;;;9.60;9.30;;;-2.10;99.90;;;;;;5122429;27;20708;-80
2021/12/22 09:42:54;;;;;;;9.63;9.33;;;-1.90;99.90;;;;;;5122275;27;20241;-81
2021/12/22 09:45:24;;;;;;;9.43;9.13;;;-1.70;99.90;;;;;;5120595;27;20229;-80
2021/12/22 09:48:21;;;;;;;8.90;8.70;;;-1.60;99.90;;;;;;5126805;28;20252;-78
2021/12/22 09:50:55;;;;;;;9.20;8.90;;;-1.40;99.90;;;;;;5140440;27;20221;-79
2021/12/22 09:53:28;;;;;;;9.30;9.00;;;-1.00;99.90;;;;;;5140314;27;20259;-79
2021/12/22 09:55:58;;;;;;;9.20;8.90;;;-0.80;99.90;;;;;;5140259;27;20215;-79
2021/12/22 09:58:27;;;;;;;9.07;8.80;;;-0.60;99.90;;;;;;5126456;27;20240;-80
2021/12/22 10:00:56;;;;;;;9.30;9.00;;;-0.40;99.90;;;;;;5122694;28;20286;-80
2021/12/22 10:03:26;;;;;;;9.17;8.87;;;-0.20;99.90;;;;;;5119641;28;20301;-80
2021/12/22 10:05:56;;;;;;;9.30;9.00;;;-0.10;99.90;;;;;;5122136;28;20286;-81
2021/12/22 10:08:28;;;;;;;8.97;8.77;;;0.10;99.90;;;;;;5122146;28;20292;-81
2021/12/22 10:11:06;;;;;;;8.90;8.70;;;0.20;99.90;;;;;;5122297;28;20232;-82
2021/12/22 10:13:35;;;;;;;9.07;8.80;;;0.30;99.90;;;;;;5121652;28;20241;-81
2021/12/22 10:16:13;;;;;;;9.33;9.03;;;0.40;99.90;;;;;;5121527;28;20232;-80
2021/12/22 10:18:41;;;;;;;9.33;9.03;;;0.60;99.90;;;;;;5122247;28;20305;-82
2021/12/22 10:21:13;;;;;;;9.40;9.10;;;0.80;99.90;;;;;;5121195;28;20742;-81
2021/12/22 10:23:48;;;;;;;9.30;9.00;;;0.80;99.90;;;;;;5121745;28;20266;-80
2021/12/22 10:26:18;;;;;;;9.47;9.17;;;0.80;99.90;;;;;;5121044;28;20240;-80
2021/12/22 10:28:53;;;;;;;9.47;9.17;;;0.70;99.90;;;;;;5121029;28;20291;-80
2021/12/22 10:31:23;;;;;;;9.30;9.00;;;0.60;99.90;;;;;;5120478;28;20246;-80
2021/12/22 10:33:51;;;;;;;9.30;9.00;;;0.60;99.90;;;;;;5120780;27;20296;-80
2021/12/22 10:36:22;;;;;;;9.33;9.03;;;0.50;99.90;;;;;;5120408;28;20236;-80
2021/12/22 10:38:59;;;;;;;9.27;8.97;;;0.60;99.90;;;;;;5120251;28;20254;-80
2021/12/22 10:41:31;;;;;;;9.23;8.93;;;0.50;99.90;;;;;;5121088;28;20238;-80
2021/12/22 10:44:00;;;;;;;9.33;9.03;;;0.60;99.90;;;;;;5121072;28;20240;-80
2021/12/22 10:46:31;;;;;;;9.53;9.23;;;0.80;99.90;;;;;;5120982;28;20240;-80
2021/12/22 10:49:18;;;;;;;9.57;9.27;;;0.90;99.90;;;;;;5120694;28;20233;-81
2021/12/22 10:51:50;;;;;;;9.70;9.40;;;1.00;99.90;;;;;;5119463;27;20736;-80
2021/12/22 10:54:19;;;;;;;9.93;9.63;;;1.00;99.90;;;;;;5121113;28;20225;-80
2021/12/22 10:56:48;;;;;;;10.10;9.80;;;1.00;99.90;;;;;;5121786;28;20224;-81
2021/12/22 10:59:18;;;;;;;9.17;8.87;;;1.20;99.90;;;;;;5133019;28;20213;-79
2021/12/22 11:02:07;;;;;;;9.40;9.10;;;1.50;99.90;;;;;;5139694;27;20213;-78
2021/12/22 11:04:37;;;;;;;8.83;8.63;;;1.40;99.90;;;;;;5134215;28;20229;-81
2021/12/22 11:07:12;;;;;;;9.10;8.83;;;1.40;99.90;;;;;;5124220;28;20229;-79
2021/12/22 11:09:41;;;;;;;9.40;9.10;;;1.40;99.90;;;;;;5124805;28;20373;-79
2021/12/22 11:12:13;;;;;;;9.77;9.47;;;1.40;99.90;;;;;;5125161;27;20232;-80
2021/12/22 11:14:47;;;;;;;9.30;9.00;;;1.40;99.90;;;;;;5125462;28;20229;-80
2021/12/22 11:17:17;;;;;;;9.33;9.03;;;1.50;99.90;;;;;;5123584;28;20300;-80
2021/12/22 11:19:56;;;;;;;10.10;9.80;;;1.60;99.90;;;;;;5134846;28;20220;-80
2021/12/22 11:22:40;;;;;;;10.03;9.73;;;2.00;99.90;;;;;;5122495;27;20606;-80
2021/12/22 11:25:12;;;;;;;9.83;9.53;;;2.30;99.90;;;;;;5122220;28;20228;-80
2021/12/22 11:27:40;;;;;;;9.87;9.57;;;2.40;99.90;;;;;;5121035;28;20229;-79
2021/12/22 11:30:09;;;;;;;9.90;9.60;;;2.50;99.90;;;;;;5122169;28;20229;-80
2021/12/22 11:32:37;;;;;;;9.90;9.60;;;2.60;99.90;;;;;;5121983;27;20263;-80
2021/12/22 11:35:08;;;;;;;9.83;9.53;;;2.50;99.90;;;;;;5123219;28;20275;-80
2021/12/22 11:37:37;;;;;;;9.80;9.50;;;2.50;99.90;;;;;;5124019;28;20286;-80
2021/12/22 11:40:10;;;;;;;9.67;9.37;;;2.50;99.90;;;;;;5118483;28;20233;-80
2021/12/22 11:42:39;;;;;;;10.00;9.70;;;2.50;99.90;;;;;;5123323;27;20221;-79
2021/12/22 11:45:12;;;;;;;9.90;9.60;;;2.60;99.90;;;;;;5123392;28;20229;-80
2021/12/22 11:47:43;;;;;;;10.00;9.70;;;2.80;99.90;;;;;;5123585;28;20224;-79
2021/12/22 11:50:19;;;;;;;9.90;9.60;;;2.90;99.90;;;;;;5123385;27;20229;-79
2021/12/22 11:52:58;;;;;;;10.10;9.80;;;3.10;99.90;;;;;;5123025;27;20220;-80
2021/12/22 11:55:38;;;;;;;10.13;9.83;;;3.30;99.90;;;;;;5122959;28;20252;-80
2021/12/22 11:58:21;;;;;;;10.20;9.90;;;3.30;99.90;;;;;;5123428;27;20294;-79
2021/12/22 12:01:08;;;;;;;10.17;9.87;;;3.30;99.90;;;;;;5124225;28;20319;-79
2021/12/22 12:03:40;;;;;;;10.13;9.83;;;3.40;99.90;;;;;;5125074;27;20244;-80
2021/12/22 12:06:12;;;;;;;10.00;9.70;;;3.60;99.90;;;;;;5119300;28;20260;-79
2021/12/22 12:08:45;;;;;;;10.00;9.70;;;3.50;99.90;;;;;;5123056;28;20229;-80
2021/12/22 12:11:18;;;;;;;10.30;10.00;;;3.50;99.90;;;;;;5123375;28;20400;-79
2021/12/22 12:13:50;;;;;;;10.27;9.97;;;3.70;99.90;;;;;;5121775;27;20288;-80
2021/12/22 12:22:32;;;;;;;10.10;9.80;;;3.70;99.90;;;;;;5129005;27;20232;-79
2021/12/22 12:25:10;;;;;;;9.97;9.67;;;3.40;99.90;;;;;;5131076;28;20228;-79
2021/12/22 12:27:55;;;;;;;9.87;9.57;;;3.00;99.90;;;;;;5132436;28;20262;-79
2021/12/22 12:30:26;;;;;;;10.07;9.77;;;2.70;99.90;;;;;;5126166;28;20244;-79
2021/12/22 12:33:24;;;;;;;9.90;9.60;;;2.80;99.90;;;;;;5119119;27;20237;-80
2021/12/22 12:35:58;;;;;;;9.70;9.40;;;3.00;99.90;;;;;;5126124;27;20263;-79
2021/12/22 12:38:30;;;;;;;9.70;9.40;;;3.10;99.90;;;;;;5141482;27;20216;-80
2021/12/22 12:41:17;;;;;;;9.67;9.37;;;3.20;99.90;;;;;;5141923;27;20208;-77
2021/12/22 12:44:02;;;;;;;9.33;9.03;;;3.10;99.90;;;;;;5137966;27;20225;-80
2021/12/22 12:46:47;;;;;;;10.10;9.80;;;3.30;99.90;;;;;;5128578;28;20276;-81
2021/12/22 12:49:43;;;;;;;9.83;9.53;;;3.40;99.90;;;;;;5122894;28;20236;-82
2021/12/22 12:52:22;;;;;;;9.73;9.43;;;3.50;99.90;;;;;;5122366;27;20299;-81
2021/12/22 12:54:52;;;;;;;9.80;9.50;;;3.30;99.90;;;;;;5122308;28;20306;-81
2021/12/22 12:57:31;;;;;;;9.87;9.57;;;3.00;99.90;;;;;;5120435;28;20217;-79
2021/12/22 13:00:16;;;;;;;10.10;9.80;;;2.90;99.90;;;;;;5119287;28;20233;-80
2021/12/22 13:02:45;;;;;;;10.00;9.70;;;2.80;99.90;;;;;;5121731;27;20286;-81
2021/12/22 13:05:17;;;;;;;10.00;9.70;;;2.70;99.90;;;;;;5120028;28;20286;-81
2021/12/22 13:07:46;;;;;;;10.07;9.77;;;2.60;99.90;;;;;;5121266;28;20236;-80
2021/12/22 13:10:24;;;;;;;10.30;10.00;;;2.50;99.90;;;;;;5121406;28;20245;-81
2021/12/22 13:15:47;;;;;;;10.40;10.10;;;2.60;99.90;;;;;;5122304;28;20689;-80
2021/12/22 13:18:31;;;;;;;10.37;10.07;;;2.60;99.90;;;;;;5122609;28;20260;-81